Time;durP1;ratioP1;P1;durP2;ratioP2;P2;SDS_P1;SDS_P2;PMS_P1;PMS_P2;Temp;Humidity;BMP_temperature;BMP_pressure;BME280_temperature;BME280_humidity;BME280_pressure;Samples;Min_cycle;Max_cycle;Signal;HPM_P1;HPM_P2
2021/07/13 00:00:11;;;;;;;8.68;5.03;;;;;;;17.51;75.92;101066.78;5043747;28;20055;-47
2021/07/13 00:02:39;;;;;;;15.48;5.63;;;;;;;17.50;76.10;101065.19;5043662;28;20067;-45
2021/07/13 00:05:10;;;;;;;5.63;4.82;;;;;;;17.48;76.07;101061.97;5046198;28;20408;-43
2021/07/13 00:07:37;;;;;;;10.45;5.30;;;;;;;17.45;76.36;101068.31;5027121;28;20045;-44
2021/07/13 00:10:06;;;;;;;4.88;4.32;;;;;;;17.41;76.62;101061.91;5046904;28;20060;-45
2021/07/13 00:12:34;;;;;;;6.70;4.85;;;;;;;17.34;76.83;101062.63;5041689;28;20048;-43
2021/07/13 00:15:03;;;;;;;6.43;5.15;;;;;;;17.34;76.75;101064.63;5048407;28;20057;-44
2021/07/13 00:17:29;;;;;;;6.47;4.95;;;;;;;17.30;76.99;101072.97;5032132;28;20417;-49
2021/07/13 00:19:56;;;;;;;9.57;4.93;;;;;;;17.30;76.93;101060.97;5046688;28;20540;-46
2021/07/13 00:22:23;;;;;;;5.80;4.97;;;;;;;17.29;77.00;101060.16;5044900;28;20535;-46
2021/07/13 00:24:49;;;;;;;6.13;4.97;;;;;;;17.30;76.96;101066.56;5046146;28;20429;-46
2021/07/13 00:27:16;;;;;;;8.18;5.55;;;;;;;17.26;77.01;101065.75;5043380;28;20067;-45
2021/07/13 00:29:43;;;;;;;6.65;4.80;;;;;;;17.25;76.89;101058.53;5046597;28;20049;-44
2021/07/13 00:32:10;;;;;;;7.80;5.28;;;;;;;17.25;76.85;101067.72;5046154;28;20106;-47
2021/07/13 00:34:37;;;;;;;6.88;4.88;;;;;;;17.25;76.76;101066.91;5040587;28;20049;-44
2021/07/13 00:37:03;;;;;;;7.68;4.43;;;;;;;17.20;76.67;101068.06;5043800;28;20055;-44
2021/07/13 00:39:30;;;;;;;7.55;4.90;;;;;;;17.15;77.01;101073.19;5043428;28;20051;-45
2021/07/13 00:41:57;;;;;;;7.28;5.82;;;;;;;17.12;76.96;101074.75;5042502;28;20701;-53
2021/07/13 00:44:23;;;;;;;6.15;5.53;;;;;;;17.11;76.99;101075.94;5048053;28;20079;-44
2021/07/13 00:46:51;;;;;;;9.88;5.22;;;;;;;17.03;77.06;101077.03;5042659;28;20409;-46
2021/07/13 00:49:18;;;;;;;6.18;5.05;;;;;;;16.92;77.48;101082.50;5044914;28;20138;-44
2021/07/13 00:51:46;;;;;;;6.07;5.22;;;;;;;16.89;77.31;101083.25;5048448;28;20071;-43
2021/07/13 00:54:14;;;;;;;8.13;6.05;;;;;;;16.85;77.45;101081.59;5047127;28;20044;-43
2021/07/13 00:56:43;;;;;;;7.88;5.15;;;;;;;16.83;77.38;101090.38;5046043;28;20112;-48
2021/07/13 00:59:10;;;;;;;7.68;4.90;;;;;;;16.86;77.16;101091.63;5044340;28;20044;-44
2021/07/13 01:01:37;;;;;;;10.38;5.00;;;;;;;16.88;77.18;101084.47;5043915;28;20060;-47
2021/07/13 01:04:07;;;;;;;9.20;5.38;;;;;;;16.84;77.16;101093.97;5045997;28;20102;-50
2021/07/13 01:06:57;;;;;;;6.18;5.35;;;;;;;16.78;77.34;101090.72;5048705;28;21434;-50
2021/07/13 01:09:51;;;;;;;9.82;5.80;;;;;;;16.76;77.42;101092.28;5042872;28;20059;-45
2021/07/13 01:12:40;;;;;;;10.38;5.80;;;;;;;16.73;77.51;101084.66;5046140;28;20052;-44
2021/07/13 01:15:10;;;;;;;5.97;5.32;;;;;;;16.71;77.21;101090.59;5048422;28;20086;-50
2021/07/13 01:17:48;;;;;;;6.75;5.47;;;;;;;16.62;77.68;101092.06;5044742;28;20045;-55
2021/07/13 01:20:46;;;;;;;6.93;5.15;;;;;;;16.57;77.81;101086.81;5043751;28;20546;-44
2021/07/13 01:23:25;;;;;;;8.43;5.25;;;;;;;16.58;77.63;101091.19;5044183;28;20120;-44
2021/07/13 01:26:02;;;;;;;7.97;5.60;;;;;;;16.55;77.74;101080.81;5045886;28;20052;-44
2021/07/13 01:28:35;;;;;;;7.47;5.18;;;;;;;16.51;77.86;101083.50;5047189;28;20049;-43
2021/07/13 01:31:05;;;;;;;9.95;5.03;;;;;;;16.51;77.81;101091.06;5044632;28;20045;-43
2021/07/13 01:33:37;;;;;;;6.28;5.03;;;;;;;16.50;77.80;101089.44;5043563;28;20061;-44
2021/07/13 01:36:18;;;;;;;5.78;5.15;;;;;;;16.45;78.02;101096.19;5046063;28;20486;-44
2021/07/13 01:38:47;;;;;;;10.20;5.65;;;;;;;16.47;77.65;101091.00;5045775;28;20059;-48
2021/07/13 01:41:21;;;;;;;11.02;5.75;;;;;;;16.47;77.69;101095.81;5045734;28;20051;-44
2021/07/13 01:43:50;;;;;;;13.18;5.70;;;;;;;16.44;77.52;101086.97;5040609;28;20063;-50
2021/07/13 01:46:18;;;;;;;10.20;6.10;;;;;;;16.41;77.73;101098.13;5046907;28;20055;-48
2021/07/13 01:48:47;;;;;;;7.88;5.22;;;;;;;16.40;77.82;101088.94;5046960;28;20607;-44
2021/07/13 01:51:15;;;;;;;7.97;5.30;;;;;;;16.38;77.69;101094.09;5041126;28;20052;-49
2021/07/13 01:53:43;;;;;;;5.90;5.30;;;;;;;16.34;78.06;101093.22;5043411;28;20522;-47
2021/07/13 01:56:10;;;;;;;8.55;6.00;;;;;;;16.31;78.11;101093.97;5044193;28;20049;-51
2021/07/13 01:58:39;;;;;;;9.32;5.47;;;;;;;16.30;78.04;101095.19;5044937;28;20052;-45
2021/07/13 02:01:14;;;;;;;8.70;5.20;;;;;;;16.27;78.10;101100.69;5045526;28;20064;-53
2021/07/13 02:03:43;;;;;;;7.55;4.97;;;;;;;16.27;78.15;101098.72;5040734;28;20041;-45
2021/07/13 02:06:12;;;;;;;5.82;5.20;;;;;;;16.30;77.89;101097.97;5042732;28;20057;-44
2021/07/13 02:08:39;;;;;;;7.10;4.95;;;;;;;16.23;78.06;101100.63;5039777;28;20950;-45
2021/07/13 02:11:08;;;;;;;10.82;5.13;;;;;;;16.19;78.07;101102.56;5043461;28;20417;-47
2021/07/13 02:13:35;;;;;;;8.18;5.45;;;;;;;16.24;77.79;101104.22;5042985;28;20057;-48
2021/07/13 02:16:06;;;;;;;10.85;5.50;;;;;;;16.24;77.72;101113.44;5044880;28;20788;-50
2021/07/13 02:18:33;;;;;;;6.93;4.80;;;;;;;16.26;77.51;101107.44;5041528;28;20195;-49
2021/07/13 02:21:00;;;;;;;8.13;6.00;;;;;;;16.25;77.52;101117.84;5040204;28;20055;-44
2021/07/13 02:23:27;;;;;;;6.22;5.57;;;;;;;16.26;77.30;101110.25;5047802;28;20441;-51
2021/07/13 02:25:57;;;;;;;10.10;5.40;;;;;;;16.19;77.52;101110.94;5043516;28;20056;-45
2021/07/13 02:28:30;;;;;;;9.40;4.93;;;;;;;16.17;77.35;101104.13;5046320;28;20063;-51
2021/07/13 02:31:06;;;;;;;8.05;4.63;;;;;;;16.14;77.65;101110.47;5039883;28;20497;-47
2021/07/13 02:33:45;;;;;;;7.22;5.43;;;;;;;16.09;77.55;101114.38;5042277;28;20355;-45
2021/07/13 02:36:16;;;;;;;8.90;5.10;;;;;;;16.05;77.68;101113.50;5046936;28;20057;-47
2021/07/13 02:38:45;;;;;;;6.45;5.15;;;;;;;16.07;77.67;101119.50;5044508;28;20040;-46
2021/07/13 02:41:14;;;;;;;6.97;4.75;;;;;;;16.04;77.61;101123.06;5046637;28;20049;-47
2021/07/13 02:43:43;;;;;;;8.32;5.65;;;;;;;16.01;77.64;101129.41;5044161;28;20096;-43
2021/07/13 02:46:10;;;;;;;7.85;5.70;;;;;;;15.98;77.72;101134.91;5045843;28;20049;-44
2021/07/13 02:48:38;;;;;;;7.97;4.65;;;;;;;15.94;77.87;101129.25;5046490;28;20608;-45
2021/07/13 02:51:09;;;;;;;10.07;5.97;;;;;;;15.92;77.87;101131.63;5038879;28;20052;-45
2021/07/13 02:53:38;;;;;;;14.17;6.20;;;;;;;15.89;77.85;101137.94;5041480;28;20044;-46
2021/07/13 02:56:07;;;;;;;9.73;6.47;;;;;;;15.87;77.99;101134.72;5041046;28;20301;-45
2021/07/13 02:58:35;;;;;;;11.23;5.30;;;;;;;15.90;77.92;101138.75;5043682;28;20478;-44
2021/07/13 03:01:05;;;;;;;9.82;6.85;;;;;;;15.87;77.87;101142.28;5040551;28;20044;-53
2021/07/13 03:03:36;;;;;;;7.10;5.47;;;;;;;15.84;77.99;101153.03;5043470;28;20045;-43
2021/07/13 03:06:04;;;;;;;10.90;6.07;;;;;;;15.88;77.95;101147.53;5040012;28;20114;-46
2021/07/13 03:08:31;;;;;;;8.23;5.65;;;;;;;15.88;77.90;101139.16;5042219;28;20055;-42
2021/07/13 03:10:58;;;;;;;7.43;5.38;;;;;;;15.89;77.79;101149.13;5046626;28;20056;-44
2021/07/13 03:13:25;;;;;;;8.40;6.43;;;;;;;15.84;78.04;101141.06;5038636;28;20490;-48
2021/07/13 03:15:53;;;;;;;9.50;6.90;;;;;;;15.83;77.98;101147.81;5050926;28;20053;-43
2021/07/13 03:18:20;;;;;;;7.38;5.53;;;;;;;15.80;78.02;101141.00;5039516;28;20044;-49
2021/07/13 03:20:53;;;;;;;13.52;5.63;;;;;;;15.76;78.28;101142.91;5044329;28;22026;-43
2021/07/13 03:23:22;;;;;;;9.82;6.10;;;;;;;15.70;78.36;101140.81;5040235;28;20049;-47
2021/07/13 03:25:50;;;;;;;9.23;6.32;;;;;;;15.67;78.58;101138.75;5039999;28;20509;-51
2021/07/13 03:28:21;;;;;;;8.23;5.78;;;;;;;15.69;78.55;101147.56;5042358;28;20063;-43
2021/07/13 03:30:48;;;;;;;9.10;5.78;;;;;;;15.67;78.61;101150.69;5042106;28;20697;-48
2021/07/13 03:33:16;;;;;;;10.25;5.82;;;;;;;15.65;78.67;101152.25;5045350;28;20143;-52
2021/07/13 03:35:42;;;;;;;11.13;6.35;;;;;;;15.59;78.80;101156.53;5041229;28;20827;-44
2021/07/13 03:38:10;;;;;;;9.02;6.63;;;;;;;15.57;79.04;101156.88;5041831;28;20137;-44
2021/07/13 03:40:38;;;;;;;9.52;6.38;;;;;;;15.59;79.04;101153.75;5043412;28;20409;-43
2021/07/13 03:43:05;;;;;;;9.80;6.28;;;;;;;15.56;79.10;101157.28;5041444;28;20250;-47
2021/07/13 03:45:32;;;;;;;9.38;6.47;;;;;;;15.58;78.85;101164.09;5045632;28;20055;-48
2021/07/13 03:48:01;;;;;;;9.88;6.15;;;;;;;15.59;78.86;101164.91;5042515;28;20126;-52
2021/07/13 03:50:33;;;;;;;8.57;6.60;;;;;;;15.53;78.94;101153.22;5039714;28;20559;-44
2021/07/13 03:53:00;;;;;;;9.43;7.00;;;;;;;15.56;78.68;101163.66;5046420;28;20583;-44
2021/07/13 03:55:27;;;;;;;9.40;6.70;;;;;;;15.51;78.96;101160.38;5040976;28;20168;-44
2021/07/13 03:57:55;;;;;;;9.90;6.70;;;;;;;15.49;78.99;101157.91;5039839;28;20511;-44
2021/07/13 04:00:27;;;;;;;9.55;6.57;;;;;;;15.50;78.99;101153.97;5044953;28;20052;-44
2021/07/13 04:02:54;;;;;;;7.93;6.22;;;;;;;15.50;79.01;101158.72;5045141;28;20049;-52
2021/07/13 04:05:21;;;;;;;9.95;6.25;;;;;;;15.45;79.15;101159.00;5043869;28;20083;-45
2021/07/13 04:07:49;;;;;;;11.25;6.40;;;;;;;15.44;79.22;101160.16;5037466;28;20060;-44
2021/07/13 04:10:16;;;;;;;11.07;7.10;;;;;;;15.39;79.29;101168.84;5038513;28;20067;-47
2021/07/13 04:12:43;;;;;;;11.65;6.47;;;;;;;15.32;79.48;101163.13;5039366;28;20082;-50
2021/07/13 04:15:11;;;;;;;9.52;6.35;;;;;;;15.33;79.59;101159.16;5041820;28;20512;-44
2021/07/13 04:17:38;;;;;;;15.07;6.75;;;;;;;15.27;79.73;101171.78;5046289;28;20072;-46
2021/07/13 04:20:07;;;;;;;9.63;6.40;;;;;;;15.21;79.66;101163.72;5044042;28;20143;-43
2021/07/13 04:22:33;;;;;;;9.77;6.25;;;;;;;15.24;80.07;101179.72;5048511;28;20057;-50
2021/07/13 04:25:05;;;;;;;12.07;6.32;;;;;;;15.27;80.11;101178.19;5042499;28;20045;-45
2021/07/13 04:27:31;;;;;;;8.77;6.88;;;;;;;15.25;79.99;101186.91;5047553;28;20138;-52
2021/07/13 04:29:58;;;;;;;12.40;7.72;;;;;;;15.23;80.05;101189.25;5043887;28;20171;-46
2021/07/13 04:32:30;;;;;;;10.27;6.93;;;;;;;15.22;80.18;101184.84;5044839;28;20087;-44
2021/07/13 04:34:57;;;;;;;11.27;7.78;;;;;;;15.24;80.22;101185.28;5049542;28;20412;-46
2021/07/13 04:37:25;;;;;;;21.08;10.88;;;;;;;15.22;80.52;101187.63;5047956;28;20049;-44
2021/07/13 04:39:52;;;;;;;13.20;8.00;;;;;;;15.22;80.72;101182.03;5041251;28;20538;-44
2021/07/13 04:42:19;;;;;;;11.07;8.85;;;;;;;15.26;80.74;101187.72;5042269;28;20148;-44
2021/07/13 04:44:46;;;;;;;12.10;8.77;;;;;;;15.26;81.08;101187.72;5051183;28;20048;-49
2021/07/13 04:47:12;;;;;;;9.90;8.23;;;;;;;15.31;80.99;101201.38;5045468;28;20053;-51
2021/07/13 04:49:39;;;;;;;9.88;7.47;;;;;;;15.36;80.79;101198.28;5045667;28;20059;-43
2021/07/13 04:52:06;;;;;;;13.93;8.52;;;;;;;15.39;81.11;101191.16;5044560;28;20045;-43
2021/07/13 04:54:33;;;;;;;12.02;8.20;;;;;;;15.41;80.86;101186.81;5048251;28;20655;-51
2021/07/13 04:57:02;;;;;;;12.82;7.38;;;;;;;15.48;81.01;101191.78;5048412;28;20462;-43
2021/07/13 04:59:29;;;;;;;8.60;7.70;;;;;;;15.49;81.28;101196.22;5047993;28;20053;-45
2021/07/13 05:01:56;;;;;;;11.52;7.72;;;;;;;15.46;81.43;101194.16;5049848;28;20045;-44
2021/07/13 05:04:24;;;;;;;10.18;7.97;;;;;;;15.48;81.69;101191.78;5047751;28;20386;-43
2021/07/13 05:06:51;;;;;;;10.00;8.32;;;;;;;15.52;81.70;101190.69;5047898;28;20492;-50
2021/07/13 05:09:19;;;;;;;11.95;8.70;;;;;;;15.60;81.93;101192.44;5044729;28;20140;-47
2021/07/13 05:11:46;;;;;;;18.50;9.60;;;;;;;15.63;81.66;101193.69;5045035;28;20057;-52
2021/07/13 05:14:13;;;;;;;10.18;7.80;;;;;;;15.68;81.73;101187.78;5040955;28;20083;-46
2021/07/13 05:16:40;;;;;;;11.35;7.57;;;;;;;15.71;81.72;101207.41;5039380;28;20057;-45
2021/07/13 05:19:09;;;;;;;9.68;6.85;;;;;;;15.73;82.02;101204.25;5045299;28;20056;-43
2021/07/13 05:21:38;;;;;;;8.90;6.32;;;;;;;15.81;81.77;101197.63;5046657;28;20588;-46
2021/07/13 05:24:05;;;;;;;10.23;7.20;;;;;;;15.83;81.52;101200.88;5046833;28;20049;-44
2021/07/13 05:26:32;;;;;;;8.07;7.22;;;;;;;15.81;81.62;101203.22;5044139;28;20045;-45
2021/07/13 05:29:03;;;;;;;10.48;7.32;;;;;;;15.84;81.86;101208.06;5046320;28;20056;-48
2021/07/13 05:31:31;;;;;;;12.10;7.47;;;;;;;15.85;81.96;101204.09;5045310;28;20509;-52
2021/07/13 05:33:57;;;;;;;12.57;7.25;;;;;;;15.91;81.71;101213.00;5047873;28;20040;-44
2021/07/13 05:36:25;;;;;;;11.10;7.57;;;;;;;15.97;81.56;101217.06;5044904;28;20544;-47
2021/07/13 05:38:53;;;;;;;9.30;6.95;;;;;;;15.97;81.41;101220.69;5043021;28;20053;-43
2021/07/13 05:41:23;;;;;;;12.15;7.75;;;;;;;15.96;81.57;101221.88;5042963;28;20048;-46
2021/07/13 05:43:51;;;;;;;11.63;7.43;;;;;;;16.00;81.50;101219.94;5046762;28;20410;-47
2021/07/13 05:46:18;;;;;;;10.32;6.85;;;;;;;16.05;81.54;101211.25;5042894;28;20819;-43
2021/07/13 05:48:45;;;;;;;11.95;7.75;;;;;;;16.15;81.28;101218.22;5043528;28;20506;-44
2021/07/13 05:51:12;;;;;;;19.85;7.70;;;;;;;16.18;81.10;101218.28;5042597;28;20045;-43
2021/07/13 05:53:39;;;;;;;10.88;7.03;;;;;;;16.21;80.96;101222.31;5043660;28;20056;-43
2021/07/13 05:56:07;;;;;;;10.93;7.53;;;;;;;16.23;80.99;101231.94;5045132;28;20048;-43
2021/07/13 05:58:35;;;;;;;10.07;7.43;;;;;;;16.23;80.84;101229.16;5047544;28;20102;-43
2021/07/13 06:01:04;;;;;;;8.40;5.70;;;;;;;16.22;80.88;101229.53;5046663;28;20065;-48
2021/07/13 06:03:31;;;;;;;9.80;7.25;;;;;;;16.22;80.87;101233.13;5025970;28;20055;-47
2021/07/13 06:05:58;;;;;;;8.80;6.63;;;;;;;16.22;80.68;101235.94;5045994;28;20057;-52
2021/07/13 06:08:25;;;;;;;10.52;6.22;;;;;;;16.14;80.78;101239.78;5041785;28;20053;-47
2021/07/13 06:10:52;;;;;;;13.45;8.10;;;;;;;16.12;80.89;101242.13;5040600;28;20047;-43
2021/07/13 06:13:20;;;;;;;13.10;7.32;;;;;;;16.13;80.92;101252.13;5040307;28;20049;-45
2021/07/13 06:15:47;;;;;;;11.05;6.93;;;;;;;16.21;80.80;101250.25;5032872;28;20037;-44
2021/07/13 06:18:21;;;;;;;12.18;7.35;;;;;;;16.28;80.95;101256.00;5044160;28;20403;-44
2021/07/13 06:20:48;;;;;;;11.75;7.40;;;;;;;16.36;81.20;101250.13;5039669;28;20499;-45
2021/07/13 06:23:16;;;;;;;10.13;7.43;;;;;;;16.46;80.84;101254.31;5042792;28;20060;-43
2021/07/13 06:25:42;;;;;;;11.88;6.75;;;;;;;16.55;80.89;101245.72;5040813;28;20055;-47
2021/07/13 06:28:10;;;;;;;11.02;6.30;;;;;;;16.56;80.81;101250.94;5029949;28;20053;-45
2021/07/13 06:30:37;;;;;;;9.43;6.43;;;;;;;16.55;80.50;101249.31;5034171;28;20052;-51
2021/07/13 06:33:04;;;;;;;10.38;6.90;;;;;;;16.53;80.33;101257.25;5036908;28;20504;-48
2021/07/13 06:35:31;;;;;;;13.00;7.65;;;;;;;16.62;80.49;101259.81;5034055;28;20061;-43
2021/07/13 06:37:59;;;;;;;9.02;6.28;;;;;;;16.63;80.38;101256.63;5039670;28;20060;-50
2021/07/13 06:40:27;;;;;;;9.27;6.65;;;;;;;16.74;80.31;101268.00;5036635;28;20279;-43
2021/07/13 06:42:54;;;;;;;8.52;6.25;;;;;;;16.86;80.39;101273.41;5035489;28;20134;-45
2021/07/13 06:45:21;;;;;;;7.65;6.80;;;;;;;17.02;80.16;101266.44;5036389;28;20056;-49
2021/07/13 06:47:53;;;;;;;11.00;6.43;;;;;;;17.13;79.76;101269.41;5039207;28;20779;-43
2021/07/13 06:50:20;;;;;;;;;;;;;;;17.04;78.93;101271.69;5036933;28;20512;-44
2021/07/13 06:52:47;;;;;;;14.05;6.97;;;;;;;17.03;79.53;101273.66;5042651;28;19937;-52
2021/07/13 06:55:14;;;;;;;10.85;6.18;;;;;;;16.97;79.05;101277.97;5037849;28;20056;-44
2021/07/13 06:57:40;;;;;;;12.27;7.05;;;;;;;17.00;78.94;101284.78;5036197;28;21713;-52
2021/07/13 07:00:09;;;;;;;9.07;7.65;;;;;;;17.07;78.74;101293.31;5036331;28;20136;-44
2021/07/13 07:02:36;;;;;;;11.35;6.53;;;;;;;17.08;78.62;101289.31;5041499;28;20053;-51
2021/07/13 07:05:03;;;;;;;8.52;6.05;;;;;;;17.00;78.16;101299.59;5038392;28;20122;-44
2021/07/13 07:07:30;;;;;;;9.60;6.30;;;;;;;17.03;78.21;101298.03;5041321;28;20080;-43
2021/07/13 07:09:57;;;;;;;10.40;6.20;;;;;;;17.05;78.19;101301.25;5035625;28;20498;-49
2021/07/13 07:12:24;;;;;;;15.20;7.00;;;;;;;17.17;78.02;101306.66;5040825;28;20134;-44
2021/07/13 07:14:51;;;;;;;8.93;6.45;;;;;;;17.14;77.67;101310.22;5038683;28;20064;-46
2021/07/13 07:17:17;;;;;;;12.93;6.68;;;;;;;17.16;77.83;101310.63;5038149;28;20136;-43
2021/07/13 07:19:44;;;;;;;9.93;6.85;;;;;;;17.25;77.59;101310.38;5039469;28;20049;-42
2021/07/13 07:22:11;;;;;;;19.58;7.55;;;;;;;17.28;77.41;101321.63;5035734;28;20136;-45
2021/07/13 07:24:37;;;;;;;10.10;5.95;;;;;;;17.24;77.52;101323.56;5035201;28;20041;-45
2021/07/13 07:27:04;;;;;;;9.40;6.82;;;;;;;17.22;77.55;101316.72;5037230;28;20052;-47
2021/07/13 07:29:31;;;;;;;7.20;5.28;;;;;;;17.23;77.29;101318.34;5040880;28;20048;-43
2021/07/13 07:31:58;;;;;;;6.60;5.57;;;;;;;17.16;77.15;101324.63;5034573;28;20056;-44
2021/07/13 07:34:26;;;;;;;11.45;6.30;;;;;;;17.26;77.33;101317.59;5037501;28;20049;-49
2021/07/13 07:36:53;;;;;;;8.85;5.82;;;;;;;17.34;77.31;101320.09;5035688;28;20049;-43
2021/07/13 07:39:19;;;;;;;9.57;5.57;;;;;;;17.55;77.72;101314.84;5035040;28;20094;-42
2021/07/13 07:41:46;;;;;;;12.15;6.07;;;;;;;17.83;78.01;101322.03;5037926;28;20147;-44
2021/07/13 07:44:14;;;;;;;12.27;5.65;;;;;;;18.06;78.44;101314.31;5029599;28;20154;-43
2021/07/13 07:46:42;;;;;;;9.10;5.47;;;;;;;18.37;78.22;101321.47;5033427;28;20081;-44
2021/07/13 07:49:09;;;;;;;8.13;5.70;;;;;;;18.51;76.90;101316.84;5034531;28;20060;-47
2021/07/13 07:51:37;;;;;;;11.02;5.32;;;;;;;18.55;76.20;101316.91;5040493;28;20081;-46
2021/07/13 07:54:05;;;;;;;13.82;6.90;;;;;;;18.63;75.97;101315.78;5035509;28;20872;-43
2021/07/13 07:56:33;;;;;;;9.32;5.88;;;;;;;18.86;75.38;101324.81;5049130;28;20126;-45
2021/07/13 07:59:02;;;;;;;6.68;5.07;;;;;;;19.06;74.80;101319.78;5037352;28;20059;-51
2021/07/13 08:01:29;;;;;;;7.10;5.35;;;;;;;19.21;74.04;101321.47;5041077;28;20052;-43
2021/07/13 08:04:00;;;;;;;8.70;4.80;;;;;;;19.23;73.37;101319.88;5042755;28;20049;-44
2021/07/13 08:06:27;;;;;;;6.05;4.82;;;;;;;19.17;72.57;101329.06;5040907;28;20486;-45
2021/07/13 08:08:53;;;;;;;8.88;5.15;;;;;;;19.13;72.10;101323.44;5038959;28;20056;-47
2021/07/13 08:11:20;;;;;;;7.47;4.38;;;;;;;19.07;72.09;101326.97;5040552;28;22870;-47
2021/07/13 08:13:47;;;;;;;7.15;5.03;;;;;;;18.95;71.93;101330.91;5040365;28;20421;-43
2021/07/13 08:16:14;;;;;;;6.82;4.50;;;;;;;18.99;71.79;101326.13;5040889;28;20187;-43
2021/07/13 08:18:41;;;;;;;5.65;4.03;;;;;;;18.99;72.12;101319.69;5039746;28;20052;-53
2021/07/13 08:21:19;;;;;;;6.55;5.38;;;;;;;18.93;71.44;101321.25;5037306;28;20570;-43
2021/07/13 08:23:47;;;;;;;6.82;4.68;;;;;;;18.89;71.82;101323.22;5041610;28;20413;-49
2021/07/13 08:26:14;;;;;;;7.53;4.85;;;;;;;18.82;71.69;101321.94;5041645;28;20056;-48
2021/07/13 08:28:42;;;;;;;9.55;5.85;;;;;;;18.75;71.87;101327.50;5045858;28;22348;-55
2021/07/13 08:31:09;;;;;;;8.18;4.22;;;;;;;18.72;72.17;101333.06;5035638;28;20069;-43
2021/07/13 08:33:36;;;;;;;7.00;5.32;;;;;;;18.69;71.87;101334.66;5043271;28;20079;-45
2021/07/13 08:36:03;;;;;;;5.72;4.70;;;;;;;18.65;72.21;101328.22;5039705;28;20045;-43
2021/07/13 08:38:30;;;;;;;5.38;4.10;;;;;;;18.62;72.37;101328.97;5040283;28;20106;-44
2021/07/13 08:40:57;;;;;;;8.48;3.78;;;;;;;18.66;71.96;101335.44;5043806;28;20045;-44
2021/07/13 08:43:23;;;;;;;5.20;4.05;;;;;;;18.62;71.79;101325.38;5036341;28;20049;-46
2021/07/13 08:45:54;;;;;;;6.82;4.00;;;;;;;18.71;71.89;101321.06;5036472;28;20746;-46
2021/07/13 08:48:23;;;;;;;7.13;4.97;;;;;;;18.79;71.88;101311.53;5040153;28;20061;-50
2021/07/13 08:50:57;;;;;;;5.60;4.22;;;;;;;18.94;71.57;101318.06;5035384;28;20414;-45
2021/07/13 08:53:24;;;;;;;6.72;3.83;;;;;;;19.12;71.23;101318.19;5038162;28;20044;-46
2021/07/13 08:55:54;;;;;;;5.75;4.20;;;;;;;19.35;71.28;101313.16;5050216;28;20544;-53
2021/07/13 08:58:23;;;;;;;5.45;3.90;;;;;;;19.60;70.97;101322.56;5037442;28;20053;-44
2021/07/13 09:00:51;;;;;;;6.80;3.75;;;;;;;19.74;70.70;101305.81;5040637;28;20045;-45
2021/07/13 09:03:19;;;;;;;5.97;4.15;;;;;;;20.02;70.70;101311.53;5043950;28;20069;-52
2021/07/13 09:05:47;;;;;;;4.70;3.40;;;;;;;20.69;70.52;101302.50;5037288;28;20049;-44
2021/07/13 09:08:20;;;;;;;4.20;3.10;;;;;;;21.46;69.00;101320.59;5040514;28;20115;-44
2021/07/13 09:11:07;;;;;;;5.65;3.40;;;;;;;21.96;66.95;101315.63;5024274;28;20063;-52
2021/07/13 09:13:42;;;;;;;8.00;3.42;;;;;;;22.31;67.18;101315.47;5041087;28;20045;-47
2021/07/13 09:16:12;;;;;;;3.17;2.88;;;;;;;22.58;65.44;101305.22;5040992;28;20055;-44
2021/07/13 09:18:42;;;;;;;4.47;3.30;;;;;;;22.74;64.28;101302.69;5041631;28;20103;-44
2021/07/13 09:21:14;;;;;;;3.40;2.97;;;;;;;22.61;63.45;101300.78;5037924;28;20072;-51
2021/07/13 09:24:10;;;;;;;3.22;2.67;;;;;;;22.79;62.82;101307.94;5040015;28;20063;-49
2021/07/13 09:26:41;;;;;;;5.50;2.50;;;;;;;22.64;62.99;101309.22;5042300;28;20053;-43
2021/07/13 09:29:40;;;;;;;4.75;2.70;;;;;;;22.33;62.39;101307.38;5040912;28;20059;-44
2021/07/13 09:32:29;;;;;;;3.90;3.03;;;;;;;22.00;62.22;101305.94;5035149;28;20164;-46
2021/07/13 09:35:03;;;;;;;3.67;3.05;;;;;;;21.80;63.10;101304.78;5044682;28;20087;-54
2021/07/13 09:37:38;;;;;;;3.13;2.83;;;;;;;21.60;63.20;101310.09;5039858;28;20063;-48
2021/07/13 09:40:17;;;;;;;5.10;2.65;;;;;;;21.50;63.31;101304.50;5037369;28;20067;-49
2021/07/13 09:42:49;;;;;;;3.83;2.42;;;;;;;21.39;63.70;101303.69;5039095;28;20053;-43
2021/07/13 09:45:18;;;;;;;3.30;2.80;;;;;;;21.35;63.73;101302.88;5039057;28;20152;-45
2021/07/13 09:47:47;;;;;;;4.30;2.85;;;;;;;21.25;63.60;101310.16;5038670;28;20180;-48
2021/07/13 09:50:39;;;;;;;6.95;3.42;;;;;;;21.19;63.34;101311.75;5039296;28;20559;-43
2021/07/13 09:53:15;;;;;;;4.30;2.75;;;;;;;21.20;63.78;101319.81;5040042;28;20041;-46
2021/07/13 09:55:43;;;;;;;3.85;3.10;;;;;;;21.15;63.95;101317.38;5037932;28;20072;-43
2021/07/13 09:58:20;;;;;;;5.68;3.03;;;;;;;21.03;63.87;101323.41;5039352;28;20501;-43
2021/07/13 10:00:57;;;;;;;3.53;3.15;;;;;;;20.85;64.01;101318.97;5038221;28;20044;-54
2021/07/13 10:03:24;;;;;;;8.85;3.20;;;;;;;20.64;64.39;101331.84;5029440;28;20049;-48
2021/07/13 10:05:53;;;;;;;4.70;3.15;;;;;;;20.53;65.22;101333.00;5035679;28;20147;-43
2021/07/13 10:08:22;;;;;;;5.60;3.15;;;;;;;20.28;64.94;101330.13;5036157;28;20080;-44
2021/07/13 10:10:50;;;;;;;5.55;3.33;;;;;;;20.15;65.40;101330.88;5024721;28;20044;-46
2021/07/13 10:13:18;;;;;;;3.60;2.78;;;;;;;20.14;65.34;101335.69;5038144;28;20517;-43
2021/07/13 10:15:48;;;;;;;4.45;3.63;;;;;;;20.15;65.62;101334.47;5024474;28;20049;-43
2021/07/13 10:18:20;;;;;;;10.40;4.05;;;;;;;20.17;65.69;101334.09;5033633;28;20063;-52
2021/07/13 10:20:50;;;;;;;5.25;3.42;;;;;;;20.20;66.07;101328.44;5042622;28;20053;-44
2021/07/13 10:23:19;;;;;;;5.60;3.42;;;;;;;20.33;65.65;101331.75;5022541;28;20048;-46
2021/07/13 10:25:46;;;;;;;5.57;3.38;;;;;;;20.46;65.86;101331.00;5025427;28;20133;-44
2021/07/13 10:28:19;;;;;;;5.75;2.80;;;;;;;20.48;65.86;101339.03;5037546;28;20048;-44
2021/07/13 10:30:47;;;;;;;4.20;3.20;;;;;;;20.58;66.16;101335.44;5037051;28;20045;-43
2021/07/13 10:33:31;;;;;;;3.50;3.05;;;;;;;20.46;65.29;101342.25;5036422;28;20394;-43
2021/07/13 10:36:31;;;;;;;5.35;3.38;;;;;;;20.37;65.57;101333.38;5036900;28;20080;-46
2021/07/13 10:39:28;;;;;;;2.88;2.40;;;;;;;20.32;65.40;101338.56;5037376;28;20422;-45
2021/07/13 10:41:57;;;;;;;4.15;2.90;;;;;;;20.39;66.09;101341.41;5038597;28;20040;-48
2021/07/13 10:44:52;;;;;;;5.28;3.45;;;;;;;20.50;65.74;101328.97;5040205;28;20500;-49
2021/07/13 10:47:20;;;;;;;7.60;3.50;;;;;;;20.50;65.59;101336.63;5028171;28;20053;-47
2021/07/13 10:49:47;;;;;;;5.00;2.95;;;;;;;20.54;65.95;101329.78;5039396;28;20547;-52
2021/07/13 10:52:52;;;;;;;4.22;2.97;;;;;;;20.72;65.62;101334.66;5036979;28;20053;-54
2021/07/13 10:55:31;;;;;;;8.57;3.35;;;;;;;20.62;65.21;101339.06;5038006;28;20163;-47
2021/07/13 10:58:10;;;;;;;5.55;3.47;;;;;;;20.51;65.69;101347.50;5037898;28;20103;-55
2021/07/13 11:00:56;;;;;;;3.20;2.90;;;;;;;20.47;65.67;101343.03;5035936;28;20056;-46
2021/07/13 11:03:31;;;;;;;4.90;3.42;;;;;;;20.34;65.73;101344.59;5038734;28;20049;-48
2021/07/13 11:06:04;;;;;;;3.28;2.97;;;;;;;20.15;65.68;101345.72;5037032;28;20060;-54
2021/07/13 11:08:52;;;;;;;5.05;2.72;;;;;;;20.04;65.54;101345.66;5031962;28;20048;-43
2021/07/13 11:11:27;;;;;;;7.70;3.80;;;;;;;19.90;65.37;101354.06;5033277;28;20060;-43
2021/07/13 11:13:59;;;;;;;5.30;3.55;;;;;;;19.74;66.04;101367.63;5034456;28;20183;-53
2021/07/13 11:16:27;;;;;;;;;;;;;;;19.74;66.43;101364.81;5038412;28;20051;-44
2021/07/13 11:18:58;;;;;;;4.40;3.30;;;;;;;19.79;66.36;101353.19;5036346;28;20400;-45
2021/07/13 11:21:35;;;;;;;5.72;3.53;;;;;;;19.78;66.40;101357.19;5033980;28;20180;-46
2021/07/13 11:24:02;;;;;;;4.80;3.33;;;;;;;19.84;66.23;101355.63;5037832;28;20068;-48
2021/07/13 11:26:30;;;;;;;10.88;4.05;;;;;;;19.87;66.68;101348.41;5034035;28;20058;-46
2021/07/13 11:28:59;;;;;;;7.55;4.50;;;;;;;19.95;66.57;101358.47;5040087;28;20127;-44
2021/07/13 11:31:31;;;;;;;4.15;2.55;;;;;;;20.04;66.07;101359.72;5037673;28;20048;-46
2021/07/13 11:34:07;;;;;;;4.53;2.88;;;;;;;20.18;65.81;101356.16;5039701;28;20045;-51
2021/07/13 11:36:40;;;;;;;4.38;2.95;;;;;;;20.28;65.52;101363.09;5037751;28;20056;-46